sensor_id;sensor_type;location;lat;lon;timestamp;P1;durP1;ratioP1;P2;durP2;ratioP2
52964;SDS011;42923;53.220;6.528;2023-02-28T00:00:49;8.02;;;2.80;;
52964;SDS011;42923;53.220;6.528;2023-02-28T00:03:15;8.45;;;3.10;;
52964;SDS011;42923;53.220;6.528;2023-02-28T00:05:41;11.43;;;3.40;;
52964;SDS011;42923;53.220;6.528;2023-02-28T00:08:07;8.77;;;3.20;;
52964;SDS011;42923;53.220;6.528;2023-02-28T00:10:33;7.90;;;3.33;;
52964;SDS011;42923;53.220;6.528;2023-02-28T00:13:01;13.45;;;3.50;;
52964;SDS011;42923;53.220;6.528;2023-02-28T00:15:29;17.33;;;3.95;;
52964;SDS011;42923;53.220;6.528;2023-02-28T00:17:55;10.65;;;4.03;;
52964;SDS011;42923;53.220;6.528;2023-02-28T00:20:21;8.77;;;3.60;;
52964;SDS011;42923;53.220;6.528;2023-02-28T00:22:47;9.85;;;3.60;;
52964;SDS011;42923;53.220;6.528;2023-02-28T00:25:16;8.88;;;3.65;;
52964;SDS011;42923;53.220;6.528;2023-02-28T00:27:44;10.07;;;3.50;;
52964;SDS011;42923;53.220;6.528;2023-02-28T00:30:12;8.25;;;4.40;;
52964;SDS011;42923;53.220;6.528;2023-02-28T00:32:40;11.02;;;3.80;;
52964;SDS011;42923;53.220;6.528;2023-02-28T00:35:06;12.05;;;3.28;;
52964;SDS011;42923;53.220;6.528;2023-02-28T00:37:33;9.73;;;3.88;;
52964;SDS011;42923;53.220;6.528;2023-02-28T00:39:58;9.80;;;4.30;;
52964;SDS011;42923;53.220;6.528;2023-02-28T00:42:25;12.40;;;3.55;;
52964;SDS011;42923;53.220;6.528;2023-02-28T00:44:51;7.63;;;3.20;;
52964;SDS011;42923;53.220;6.528;2023-02-28T00:47:17;6.57;;;3.60;;
52964;SDS011;42923;53.220;6.528;2023-02-28T00:49:43;8.32;;;3.40;;
52964;SDS011;42923;53.220;6.528;2023-02-28T00:52:09;11.23;;;3.83;;
52964;SDS011;42923;53.220;6.528;2023-02-28T00:54:35;8.38;;;3.20;;
52964;SDS011;42923;53.220;6.528;2023-02-28T00:57:00;8.80;;;3.47;;
52964;SDS011;42923;53.220;6.528;2023-02-28T00:59:26;8.18;;;2.88;;
52964;SDS011;42923;53.220;6.528;2023-02-28T01:01:52;10.07;;;3.92;;
52964;SDS011;42923;53.220;6.528;2023-02-28T01:04:18;9.43;;;3.60;;
52964;SDS011;42923;53.220;6.528;2023-02-28T01:06:43;14.07;;;3.55;;
52964;SDS011;42923;53.220;6.528;2023-02-28T01:09:09;8.68;;;3.15;;
52964;SDS011;42923;53.220;6.528;2023-02-28T01:11:35;9.73;;;3.13;;
52964;SDS011;42923;53.220;6.528;2023-02-28T01:14:02;8.05;;;2.78;;
52964;SDS011;42923;53.220;6.528;2023-02-28T01:16:29;7.38;;;3.05;;
52964;SDS011;42923;53.220;6.528;2023-02-28T01:18:55;6.30;;;3.28;;
52964;SDS011;42923;53.220;6.528;2023-02-28T01:21:21;11.90;;;3.67;;
52964;SDS011;42923;53.220;6.528;2023-02-28T01:23:47;9.75;;;3.00;;
52964;SDS011;42923;53.220;6.528;2023-02-28T01:26:14;4.38;;;2.72;;
52964;SDS011;42923;53.220;6.528;2023-02-28T01:28:50;6.18;;;2.67;;
52964;SDS011;42923;53.220;6.528;2023-02-28T01:31:17;8.57;;;3.38;;
52964;SDS011;42923;53.220;6.528;2023-02-28T01:33:45;9.82;;;2.90;;
52964;SDS011;42923;53.220;6.528;2023-02-28T01:36:12;4.70;;;2.65;;
52964;SDS011;42923;53.220;6.528;2023-02-28T01:38:38;8.70;;;3.20;;
52964;SDS011;42923;53.220;6.528;2023-02-28T01:41:04;15.48;;;3.67;;
52964;SDS011;42923;53.220;6.528;2023-02-28T01:43:49;7.93;;;3.20;;
52964;SDS011;42923;53.220;6.528;2023-02-28T01:46:18;9.35;;;3.28;;
52964;SDS011;42923;53.220;6.528;2023-02-28T01:48:47;7.40;;;3.00;;
52964;SDS011;42923;53.220;6.528;2023-02-28T01:51:18;9.35;;;3.22;;
52964;SDS011;42923;53.220;6.528;2023-02-28T01:53:49;10.48;;;3.10;;
52964;SDS011;42923;53.220;6.528;2023-02-28T01:56:19;7.47;;;3.28;;
52964;SDS011;42923;53.220;6.528;2023-02-28T01:58:53;7.85;;;2.67;;
52964;SDS011;42923;53.220;6.528;2023-02-28T02:01:21;7.28;;;2.67;;
52964;SDS011;42923;53.220;6.528;2023-02-28T02:03:49;9.57;;;3.30;;
52964;SDS011;42923;53.220;6.528;2023-02-28T02:06:24;10.30;;;3.00;;
52964;SDS011;42923;53.220;6.528;2023-02-28T02:08:53;11.63;;;2.85;;
52964;SDS011;42923;53.220;6.528;2023-02-28T02:11:20;6.10;;;3.22;;
52964;SDS011;42923;53.220;6.528;2023-02-28T02:22:05;12.27;;;3.75;;
52964;SDS011;42923;53.220;6.528;2023-02-28T02:25:02;12.45;;;2.80;;
52964;SDS011;42923;53.220;6.528;2023-02-28T02:27:45;6.38;;;2.95;;
52964;SDS011;42923;53.220;6.528;2023-02-28T02:30:27;5.57;;;2.97;;
52964;SDS011;42923;53.220;6.528;2023-02-28T02:33:22;3.78;;;2.80;;
52964;SDS011;42923;53.220;6.528;2023-02-28T02:36:07;9.70;;;3.00;;
52964;SDS011;42923;53.220;6.528;2023-02-28T02:44:21;7.57;;;2.85;;
52964;SDS011;42923;53.220;6.528;2023-02-28T02:46:52;13.90;;;2.78;;
52964;SDS011;42923;53.220;6.528;2023-02-28T02:49:28;9.32;;;3.95;;
52964;SDS011;42923;53.220;6.528;2023-02-28T02:51:57;12.10;;;3.85;;
52964;SDS011;42923;53.220;6.528;2023-02-28T02:54:29;8.90;;;3.00;;
52964;SDS011;42923;53.220;6.528;2023-02-28T02:56:58;8.70;;;2.78;;
52964;SDS011;42923;53.220;6.528;2023-02-28T02:59:27;7.00;;;3.03;;
52964;SDS011;42923;53.220;6.528;2023-02-28T03:02:04;7.35;;;2.90;;
52964;SDS011;42923;53.220;6.528;2023-02-28T03:04:42;11.05;;;2.85;;
52964;SDS011;42923;53.220;6.528;2023-02-28T03:07:13;11.13;;;3.38;;
52964;SDS011;42923;53.220;6.528;2023-02-28T03:09:40;5.57;;;2.53;;
52964;SDS011;42923;53.220;6.528;2023-02-28T03:12:07;8.10;;;2.80;;
52964;SDS011;42923;53.220;6.528;2023-02-28T03:14:41;7.93;;;3.65;;
52964;SDS011;42923;53.220;6.528;2023-02-28T03:17:25;6.25;;;2.60;;
52964;SDS011;42923;53.220;6.528;2023-02-28T03:25:37;9.00;;;3.75;;
52964;SDS011;42923;53.220;6.528;2023-02-28T03:33:28;14.32;;;5.43;;
52964;SDS011;42923;53.220;6.528;2023-02-28T03:36:04;16.05;;;5.00;;
52964;SDS011;42923;53.220;6.528;2023-02-28T03:41:13;9.57;;;4.82;;
52964;SDS011;42923;53.220;6.528;2023-02-28T03:43:53;12.65;;;4.82;;
52964;SDS011;42923;53.220;6.528;2023-02-28T03:46:25;8.98;;;4.50;;
52964;SDS011;42923;53.220;6.528;2023-02-28T03:49:15;9.25;;;4.85;;
52964;SDS011;42923;53.220;6.528;2023-02-28T03:51:53;12.63;;;5.47;;
52964;SDS011;42923;53.220;6.528;2023-02-28T03:54:24;13.20;;;5.57;;
52964;SDS011;42923;53.220;6.528;2023-02-28T03:57:02;10.10;;;6.22;;
52964;SDS011;42923;53.220;6.528;2023-02-28T03:59:34;9.77;;;5.78;;
52964;SDS011;42923;53.220;6.528;2023-02-28T04:02:02;11.57;;;6.85;;
52964;SDS011;42923;53.220;6.528;2023-02-28T04:04:28;12.82;;;7.28;;
52964;SDS011;42923;53.220;6.528;2023-02-28T04:07:00;8.18;;;6.07;;
52964;SDS011;42923;53.220;6.528;2023-02-28T04:09:31;12.52;;;6.82;;
52964;SDS011;42923;53.220;6.528;2023-02-28T04:11:57;9.75;;;6.90;;
52964;SDS011;42923;53.220;6.528;2023-02-28T04:14:23;10.35;;;6.90;;
52964;SDS011;42923;53.220;6.528;2023-02-28T04:16:49;12.25;;;7.60;;
52964;SDS011;42923;53.220;6.528;2023-02-28T04:19:16;14.05;;;8.68;;
52964;SDS011;42923;53.220;6.528;2023-02-28T04:21:46;13.75;;;7.75;;
52964;SDS011;42923;53.220;6.528;2023-02-28T04:24:14;11.30;;;7.65;;
52964;SDS011;42923;53.220;6.528;2023-02-28T04:26:43;10.70;;;7.35;;
52964;SDS011;42923;53.220;6.528;2023-02-28T04:29:11;12.57;;;8.13;;
52964;SDS011;42923;53.220;6.528;2023-02-28T04:31:38;11.20;;;8.00;;
52964;SDS011;42923;53.220;6.528;2023-02-28T04:34:04;11.63;;;8.43;;
52964;SDS011;42923;53.220;6.528;2023-02-28T04:36:30;14.13;;;8.13;;
52964;SDS011;42923;53.220;6.528;2023-02-28T04:38:56;12.20;;;7.90;;
52964;SDS011;42923;53.220;6.528;2023-02-28T04:41:23;13.68;;;7.82;;
52964;SDS011;42923;53.220;6.528;2023-02-28T04:43:49;9.98;;;7.70;;
52964;SDS011;42923;53.220;6.528;2023-02-28T04:46:16;8.43;;;6.35;;
52964;SDS011;42923;53.220;6.528;2023-02-28T04:48:43;7.50;;;5.70;;
52964;SDS011;42923;53.220;6.528;2023-02-28T04:51:11;9.15;;;5.55;;
52964;SDS011;42923;53.220;6.528;2023-02-28T04:53:39;7.78;;;6.35;;
52964;SDS011;42923;53.220;6.528;2023-02-28T04:56:06;7.03;;;5.57;;
52964;SDS011;42923;53.220;6.528;2023-02-28T04:58:32;10.20;;;6.00;;
52964;SDS011;42923;53.220;6.528;2023-02-28T05:01:07;6.85;;;5.57;;
52964;SDS011;42923;53.220;6.528;2023-02-28T05:03:43;7.93;;;5.40;;
52964;SDS011;42923;53.220;6.528;2023-02-28T05:06:09;6.13;;;4.95;;
52964;SDS011;42923;53.220;6.528;2023-02-28T05:08:36;8.32;;;6.00;;
52964;SDS011;42923;53.220;6.528;2023-02-28T05:11:02;9.45;;;5.47;;
52964;SDS011;42923;53.220;6.528;2023-02-28T05:13:29;11.77;;;6.32;;
52964;SDS011;42923;53.220;6.528;2023-02-28T05:15:55;11.25;;;5.97;;
52964;SDS011;42923;53.220;6.528;2023-02-28T05:18:21;9.15;;;6.28;;
52964;SDS011;42923;53.220;6.528;2023-02-28T05:20:47;8.43;;;6.30;;
52964;SDS011;42923;53.220;6.528;2023-02-28T05:23:13;11.68;;;6.38;;
52964;SDS011;42923;53.220;6.528;2023-02-28T05:25:39;10.63;;;6.32;;
52964;SDS011;42923;53.220;6.528;2023-02-28T05:28:05;13.00;;;6.63;;
52964;SDS011;42923;53.220;6.528;2023-02-28T05:30:31;12.18;;;6.93;;
52964;SDS011;42923;53.220;6.528;2023-02-28T05:32:57;11.57;;;7.47;;
52964;SDS011;42923;53.220;6.528;2023-02-28T05:35:24;10.27;;;6.22;;
52964;SDS011;42923;53.220;6.528;2023-02-28T05:37:50;12.30;;;6.88;;
52964;SDS011;42923;53.220;6.528;2023-02-28T05:40:16;13.23;;;8.18;;
52964;SDS011;42923;53.220;6.528;2023-02-28T05:42:42;14.80;;;7.53;;
52964;SDS011;42923;53.220;6.528;2023-02-28T05:45:08;12.77;;;7.57;;
52964;SDS011;42923;53.220;6.528;2023-02-28T05:47:34;13.32;;;8.05;;
52964;SDS011;42923;53.220;6.528;2023-02-28T05:50:01;12.82;;;7.47;;
52964;SDS011;42923;53.220;6.528;2023-02-28T05:52:27;13.98;;;7.65;;
52964;SDS011;42923;53.220;6.528;2023-02-28T05:54:55;12.48;;;8.70;;
52964;SDS011;42923;53.220;6.528;2023-02-28T05:57:21;13.20;;;8.40;;
52964;SDS011;42923;53.220;6.528;2023-02-28T05:59:47;11.75;;;8.10;;
52964;SDS011;42923;53.220;6.528;2023-02-28T06:02:14;16.13;;;8.95;;
52964;SDS011;42923;53.220;6.528;2023-02-28T06:04:40;14.05;;;9.00;;
52964;SDS011;42923;53.220;6.528;2023-02-28T06:07:07;15.25;;;8.55;;
52964;SDS011;42923;53.220;6.528;2023-02-28T06:09:33;13.93;;;7.45;;
52964;SDS011;42923;53.220;6.528;2023-02-28T06:11:59;12.68;;;7.35;;
52964;SDS011;42923;53.220;6.528;2023-02-28T06:14:28;13.60;;;8.70;;
52964;SDS011;42923;53.220;6.528;2023-02-28T06:16:53;14.45;;;8.23;;
52964;SDS011;42923;53.220;6.528;2023-02-28T06:19:19;13.43;;;7.40;;
52964;SDS011;42923;53.220;6.528;2023-02-28T06:21:45;14.68;;;8.43;;
52964;SDS011;42923;53.220;6.528;2023-02-28T06:24:14;12.50;;;8.40;;
52964;SDS011;42923;53.220;6.528;2023-02-28T06:26:40;11.60;;;6.93;;
52964;SDS011;42923;53.220;6.528;2023-02-28T06:29:06;11.98;;;8.90;;
52964;SDS011;42923;53.220;6.528;2023-02-28T06:31:32;9.68;;;7.53;;
52964;SDS011;42923;53.220;6.528;2023-02-28T06:33:58;11.60;;;7.68;;
52964;SDS011;42923;53.220;6.528;2023-02-28T06:36:23;11.23;;;7.35;;
52964;SDS011;42923;53.220;6.528;2023-02-28T06:38:49;9.48;;;6.93;;
52964;SDS011;42923;53.220;6.528;2023-02-28T06:41:20;11.82;;;7.45;;
52964;SDS011;42923;53.220;6.528;2023-02-28T06:43:49;10.82;;;7.25;;
52964;SDS011;42923;53.220;6.528;2023-02-28T06:46:15;13.10;;;8.35;;
52964;SDS011;42923;53.220;6.528;2023-02-28T06:48:42;11.88;;;6.95;;
52964;SDS011;42923;53.220;6.528;2023-02-28T06:51:10;11.18;;;7.68;;
52964;SDS011;42923;53.220;6.528;2023-02-28T06:53:39;12.02;;;7.93;;
52964;SDS011;42923;53.220;6.528;2023-02-28T06:56:06;14.82;;;9.40;;
52964;SDS011;42923;53.220;6.528;2023-02-28T06:58:33;10.05;;;6.68;;
52964;SDS011;42923;53.220;6.528;2023-02-28T07:01:00;13.77;;;8.18;;
52964;SDS011;42923;53.220;6.528;2023-02-28T07:03:26;16.30;;;8.85;;
52964;SDS011;42923;53.220;6.528;2023-02-28T07:05:52;10.82;;;7.97;;
52964;SDS011;42923;53.220;6.528;2023-02-28T07:08:18;12.35;;;8.95;;
52964;SDS011;42923;53.220;6.528;2023-02-28T07:10:43;14.52;;;10.35;;
52964;SDS011;42923;53.220;6.528;2023-02-28T07:13:09;15.52;;;10.70;;
52964;SDS011;42923;53.220;6.528;2023-02-28T07:15:35;15.43;;;9.85;;
52964;SDS011;42923;53.220;6.528;2023-02-28T07:18:01;16.30;;;10.45;;
52964;SDS011;42923;53.220;6.528;2023-02-28T07:20:28;13.90;;;10.80;;
52964;SDS011;42923;53.220;6.528;2023-02-28T07:22:54;17.05;;;10.88;;
52964;SDS011;42923;53.220;6.528;2023-02-28T07:25:23;15.43;;;10.38;;
52964;SDS011;42923;53.220;6.528;2023-02-28T07:27:50;16.15;;;10.75;;
52964;SDS011;42923;53.220;6.528;2023-02-28T07:30:16;16.42;;;10.40;;
52964;SDS011;42923;53.220;6.528;2023-02-28T07:32:42;17.15;;;10.68;;
52964;SDS011;42923;53.220;6.528;2023-02-28T07:35:07;18.70;;;11.73;;
52964;SDS011;42923;53.220;6.528;2023-02-28T07:37:33;15.75;;;11.20;;
52964;SDS011;42923;53.220;6.528;2023-02-28T07:40:03;17.77;;;11.13;;
52964;SDS011;42923;53.220;6.528;2023-02-28T07:42:37;16.90;;;11.07;;
52964;SDS011;42923;53.220;6.528;2023-02-28T07:45:03;17.08;;;10.70;;
52964;SDS011;42923;53.220;6.528;2023-02-28T07:47:30;18.60;;;12.48;;
52964;SDS011;42923;53.220;6.528;2023-02-28T07:49:56;21.13;;;12.43;;
52964;SDS011;42923;53.220;6.528;2023-02-28T07:52:22;21.45;;;13.15;;
52964;SDS011;42923;53.220;6.528;2023-02-28T07:54:49;20.30;;;13.23;;
52964;SDS011;42923;53.220;6.528;2023-02-28T07:57:15;18.25;;;12.20;;
52964;SDS011;42923;53.220;6.528;2023-02-28T07:59:41;18.98;;;11.10;;
52964;SDS011;42923;53.220;6.528;2023-02-28T08:02:12;17.42;;;11.65;;
52964;SDS011;42923;53.220;6.528;2023-02-28T08:04:39;17.02;;;11.60;;
52964;SDS011;42923;53.220;6.528;2023-02-28T08:07:05;17.83;;;12.25;;
52964;SDS011;42923;53.220;6.528;2023-02-28T08:09:31;25.77;;;12.40;;
52964;SDS011;42923;53.220;6.528;2023-02-28T08:11:56;18.85;;;11.35;;
52964;SDS011;42923;53.220;6.528;2023-02-28T08:14:22;15.65;;;11.13;;
52964;SDS011;42923;53.220;6.528;2023-02-28T08:16:48;16.40;;;10.85;;
52964;SDS011;42923;53.220;6.528;2023-02-28T08:19:14;18.73;;;11.55;;
52964;SDS011;42923;53.220;6.528;2023-02-28T08:21:39;20.77;;;12.20;;
52964;SDS011;42923;53.220;6.528;2023-02-28T08:24:05;15.88;;;11.27;;
52964;SDS011;42923;53.220;6.528;2023-02-28T08:26:31;15.43;;;10.60;;
52964;SDS011;42923;53.220;6.528;2023-02-28T08:28:57;17.45;;;10.52;;
52964;SDS011;42923;53.220;6.528;2023-02-28T08:31:23;20.67;;;11.50;;
52964;SDS011;42923;53.220;6.528;2023-02-28T08:33:49;19.60;;;11.98;;
52964;SDS011;42923;53.220;6.528;2023-02-28T08:36:17;20.48;;;11.50;;
52964;SDS011;42923;53.220;6.528;2023-02-28T08:38:43;15.27;;;10.82;;
52964;SDS011;42923;53.220;6.528;2023-02-28T08:41:10;14.88;;;10.15;;
52964;SDS011;42923;53.220;6.528;2023-02-28T08:43:36;14.52;;;9.15;;
52964;SDS011;42923;53.220;6.528;2023-02-28T08:46:03;15.90;;;9.98;;
52964;SDS011;42923;53.220;6.528;2023-02-28T08:48:30;19.13;;;9.70;;
52964;SDS011;42923;53.220;6.528;2023-02-28T08:53:28;16.52;;;9.57;;
52964;SDS011;42923;53.220;6.528;2023-02-28T08:55:58;13.10;;;9.50;;
52964;SDS011;42923;53.220;6.528;2023-02-28T08:58:25;18.98;;;10.18;;
52964;SDS011;42923;53.220;6.528;2023-02-28T09:00:51;14.18;;;8.70;;
52964;SDS011;42923;53.220;6.528;2023-02-28T09:03:18;12.93;;;9.02;;
52964;SDS011;42923;53.220;6.528;2023-02-28T09:05:54;14.60;;;9.80;;
52964;SDS011;42923;53.220;6.528;2023-02-28T09:08:24;13.13;;;9.10;;
52964;SDS011;42923;53.220;6.528;2023-02-28T09:10:51;13.75;;;8.82;;
52964;SDS011;42923;53.220;6.528;2023-02-28T09:13:17;14.02;;;8.98;;
52964;SDS011;42923;53.220;6.528;2023-02-28T09:15:44;13.07;;;8.63;;
52964;SDS011;42923;53.220;6.528;2023-02-28T09:18:10;12.38;;;8.70;;
52964;SDS011;42923;53.220;6.528;2023-02-28T09:20:39;14.30;;;9.82;;
52964;SDS011;42923;53.220;6.528;2023-02-28T09:23:06;12.77;;;9.18;;
52964;SDS011;42923;53.220;6.528;2023-02-28T09:25:32;16.23;;;10.88;;
52964;SDS011;42923;53.220;6.528;2023-02-28T09:27:58;10.82;;;8.43;;
52964;SDS011;42923;53.220;6.528;2023-02-28T09:30:24;11.45;;;8.38;;
52964;SDS011;42923;53.220;6.528;2023-02-28T09:32:49;12.98;;;9.43;;
52964;SDS011;42923;53.220;6.528;2023-02-28T09:35:22;14.20;;;9.43;;
52964;SDS011;42923;53.220;6.528;2023-02-28T09:37:49;14.27;;;9.35;;
52964;SDS011;42923;53.220;6.528;2023-02-28T09:40:17;13.60;;;8.85;;
52964;SDS011;42923;53.220;6.528;2023-02-28T09:42:46;13.50;;;8.40;;
52964;SDS011;42923;53.220;6.528;2023-02-28T09:47:50;14.20;;;8.98;;
52964;SDS011;42923;53.220;6.528;2023-02-28T09:52:51;11.23;;;8.77;;
52964;SDS011;42923;53.220;6.528;2023-02-28T09:55:25;10.43;;;8.25;;
52964;SDS011;42923;53.220;6.528;2023-02-28T09:57:59;13.52;;;9.40;;
52964;SDS011;42923;53.220;6.528;2023-02-28T10:00:39;12.55;;;8.88;;
52964;SDS011;42923;53.220;6.528;2023-02-28T10:06:07;14.25;;;8.18;;
52964;SDS011;42923;53.220;6.528;2023-02-28T10:08:57;12.45;;;7.55;;
52964;SDS011;42923;53.220;6.528;2023-02-28T10:11:27;11.00;;;8.20;;
52964;SDS011;42923;53.220;6.528;2023-02-28T10:13:59;14.15;;;8.40;;
52964;SDS011;42923;53.220;6.528;2023-02-28T10:16:32;11.82;;;7.95;;
52964;SDS011;42923;53.220;6.528;2023-02-28T10:19:23;10.55;;;7.60;;
52964;SDS011;42923;53.220;6.528;2023-02-28T10:22:10;10.90;;;7.68;;
52964;SDS011;42923;53.220;6.528;2023-02-28T10:24:39;12.75;;;7.70;;
52964;SDS011;42923;53.220;6.528;2023-02-28T10:27:31;8.30;;;6.93;;
52964;SDS011;42923;53.220;6.528;2023-02-28T10:29:57;8.65;;;6.63;;
52964;SDS011;42923;53.220;6.528;2023-02-28T10:32:29;11.60;;;7.22;;
52964;SDS011;42923;53.220;6.528;2023-02-28T10:35:01;10.52;;;6.53;;
52964;SDS011;42923;53.220;6.528;2023-02-28T10:37:38;10.18;;;6.60;;
52964;SDS011;42923;53.220;6.528;2023-02-28T10:40:28;8.93;;;6.40;;
52964;SDS011;42923;53.220;6.528;2023-02-28T10:43:01;9.52;;;6.22;;
52964;SDS011;42923;53.220;6.528;2023-02-28T10:45:30;9.55;;;6.25;;
52964;SDS011;42923;53.220;6.528;2023-02-28T10:47:59;6.25;;;4.68;;
52964;SDS011;42923;53.220;6.528;2023-02-28T10:56:03;9.27;;;6.13;;
52964;SDS011;42923;53.220;6.528;2023-02-28T11:04:32;7.35;;;4.97;;
52964;SDS011;42923;53.220;6.528;2023-02-28T11:07:05;7.93;;;5.20;;
52964;SDS011;42923;53.220;6.528;2023-02-28T11:09:44;6.30;;;5.13;;
52964;SDS011;42923;53.220;6.528;2023-02-28T11:12:26;6.95;;;5.03;;
52964;SDS011;42923;53.220;6.528;2023-02-28T11:15:02;8.27;;;5.45;;
52964;SDS011;42923;53.220;6.528;2023-02-28T11:17:31;7.38;;;4.80;;
52964;SDS011;42923;53.220;6.528;2023-02-28T11:19:59;6.53;;;4.85;;
52964;SDS011;42923;53.220;6.528;2023-02-28T11:22:29;5.82;;;4.40;;
52964;SDS011;42923;53.220;6.528;2023-02-28T11:25:02;6.45;;;4.38;;
52964;SDS011;42923;53.220;6.528;2023-02-28T11:29:59;5.15;;;4.18;;
52964;SDS011;42923;53.220;6.528;2023-02-28T11:32:29;6.22;;;3.53;;
52964;SDS011;42923;53.220;6.528;2023-02-28T11:35:00;8.35;;;4.00;;
52964;SDS011;42923;53.220;6.528;2023-02-28T11:37:27;5.75;;;4.07;;
52964;SDS011;42923;53.220;6.528;2023-02-28T11:39:53;5.95;;;4.15;;
52964;SDS011;42923;53.220;6.528;2023-02-28T11:53:40;8.07;;;4.22;;
52964;SDS011;42923;53.220;6.528;2023-02-28T12:07:05;7.80;;;4.40;;
52964;SDS011;42923;53.220;6.528;2023-02-28T12:09:56;5.07;;;4.18;;
52964;SDS011;42923;53.220;6.528;2023-02-28T12:18:11;5.18;;;3.78;;
52964;SDS011;42923;53.220;6.528;2023-02-28T12:20:48;5.05;;;3.95;;
52964;SDS011;42923;53.220;6.528;2023-02-28T12:23:25;5.05;;;3.47;;
52964;SDS011;42923;53.220;6.528;2023-02-28T12:26:23;7.30;;;4.47;;
52964;SDS011;42923;53.220;6.528;2023-02-28T12:29:10;7.65;;;4.30;;
52964;SDS011;42923;53.220;6.528;2023-02-28T12:31:39;4.90;;;4.25;;
52964;SDS011;42923;53.220;6.528;2023-02-28T12:34:19;5.15;;;4.10;;
52964;SDS011;42923;53.220;6.528;2023-02-28T12:36:48;6.35;;;4.38;;
52964;SDS011;42923;53.220;6.528;2023-02-28T12:39:18;4.63;;;4.00;;
52964;SDS011;42923;53.220;6.528;2023-02-28T12:42:01;5.63;;;4.25;;
52964;SDS011;42923;53.220;6.528;2023-02-28T12:47:25;5.03;;;3.67;;
52964;SDS011;42923;53.220;6.528;2023-02-28T12:50:08;5.05;;;4.18;;
52964;SDS011;42923;53.220;6.528;2023-02-28T12:58:27;6.55;;;3.83;;
52964;SDS011;42923;53.220;6.528;2023-02-28T13:04:05;6.32;;;4.25;;
52964;SDS011;42923;53.220;6.528;2023-02-28T13:06:57;6.45;;;4.40;;
52964;SDS011;42923;53.220;6.528;2023-02-28T13:09:31;6.45;;;4.38;;
52964;SDS011;42923;53.220;6.528;2023-02-28T13:11:57;4.82;;;3.97;;
52964;SDS011;42923;53.220;6.528;2023-02-28T13:14:25;4.78;;;3.70;;
52964;SDS011;42923;53.220;6.528;2023-02-28T13:16:57;6.60;;;4.85;;
52964;SDS011;42923;53.220;6.528;2023-02-28T13:19:26;6.00;;;4.35;;
52964;SDS011;42923;53.220;6.528;2023-02-28T13:21:54;4.75;;;4.10;;
52964;SDS011;42923;53.220;6.528;2023-02-28T13:27:31;4.70;;;4.22;;
52964;SDS011;42923;53.220;6.528;2023-02-28T13:29:59;6.78;;;4.72;;
52964;SDS011;42923;53.220;6.528;2023-02-28T13:32:33;6.43;;;4.15;;
52964;SDS011;42923;53.220;6.528;2023-02-28T13:37:31;5.93;;;4.05;;
52964;SDS011;42923;53.220;6.528;2023-02-28T13:47:32;5.95;;;4.20;;
52964;SDS011;42923;53.220;6.528;2023-02-28T13:50:14;7.18;;;4.45;;
52964;SDS011;42923;53.220;6.528;2023-02-28T13:52:45;7.60;;;5.60;;
52964;SDS011;42923;53.220;6.528;2023-02-28T13:55:29;5.57;;;4.30;;
52964;SDS011;42923;53.220;6.528;2023-02-28T13:58:07;5.70;;;4.20;;
52964;SDS011;42923;53.220;6.528;2023-02-28T14:06:57;5.18;;;4.22;;
52964;SDS011;42923;53.220;6.528;2023-02-28T14:09:25;6.25;;;4.50;;
52964;SDS011;42923;53.220;6.528;2023-02-28T14:11:56;9.68;;;5.53;;
52964;SDS011;42923;53.220;6.528;2023-02-28T14:17:01;6.20;;;4.68;;
52964;SDS011;42923;53.220;6.528;2023-02-28T14:19:47;6.75;;;5.28;;
52964;SDS011;42923;53.220;6.528;2023-02-28T14:25:15;6.75;;;4.82;;
52964;SDS011;42923;53.220;6.528;2023-02-28T14:38:24;6.63;;;5.22;;
52964;SDS011;42923;53.220;6.528;2023-02-28T14:40:55;7.57;;;4.97;;
52964;SDS011;42923;53.220;6.528;2023-02-28T14:43:27;5.40;;;4.82;;
52964;SDS011;42923;53.220;6.528;2023-02-28T14:45:57;8.05;;;5.35;;
52964;SDS011;42923;53.220;6.528;2023-02-28T14:48:25;8.13;;;5.35;;
52964;SDS011;42923;53.220;6.528;2023-02-28T14:50:53;7.28;;;5.30;;
52964;SDS011;42923;53.220;6.528;2023-02-28T14:53:23;7.70;;;5.25;;
52964;SDS011;42923;53.220;6.528;2023-02-28T14:55:53;8.75;;;5.75;;
52964;SDS011;42923;53.220;6.528;2023-02-28T14:58:26;6.75;;;4.82;;
52964;SDS011;42923;53.220;6.528;2023-02-28T15:00:53;7.15;;;5.05;;
52964;SDS011;42923;53.220;6.528;2023-02-28T15:03:22;6.35;;;4.78;;
52964;SDS011;42923;53.220;6.528;2023-02-28T15:06:16;5.88;;;5.07;;
52964;SDS011;42923;53.220;6.528;2023-02-28T15:08:43;11.98;;;5.50;;
52964;SDS011;42923;53.220;6.528;2023-02-28T15:11:13;7.93;;;5.80;;
52964;SDS011;42923;53.220;6.528;2023-02-28T15:13:42;9.35;;;5.80;;
52964;SDS011;42923;53.220;6.528;2023-02-28T15:16:22;9.40;;;5.90;;
52964;SDS011;42923;53.220;6.528;2023-02-28T15:21:25;8.07;;;6.70;;
52964;SDS011;42923;53.220;6.528;2023-02-28T15:23:55;7.38;;;5.90;;
52964;SDS011;42923;53.220;6.528;2023-02-28T15:26:24;8.65;;;6.30;;
52964;SDS011;42923;53.220;6.528;2023-02-28T15:29:07;8.05;;;6.53;;
52964;SDS011;42923;53.220;6.528;2023-02-28T15:31:45;10.15;;;6.97;;
52964;SDS011;42923;53.220;6.528;2023-02-28T15:34:18;8.63;;;6.43;;
52964;SDS011;42923;53.220;6.528;2023-02-28T15:36:46;9.23;;;5.85;;
52964;SDS011;42923;53.220;6.528;2023-02-28T15:39:20;10.90;;;9.63;;
52964;SDS011;42923;53.220;6.528;2023-02-28T15:41:48;19.97;;;14.53;;
52964;SDS011;42923;53.220;6.528;2023-02-28T15:44:24;16.17;;;11.68;;
52964;SDS011;42923;53.220;6.528;2023-02-28T15:47:01;8.82;;;7.32;;
52964;SDS011;42923;53.220;6.528;2023-02-28T15:49:36;6.88;;;5.88;;
52964;SDS011;42923;53.220;6.528;2023-02-28T15:52:13;6.72;;;5.57;;
52964;SDS011;42923;53.220;6.528;2023-02-28T15:54:49;7.88;;;6.35;;
52964;SDS011;42923;53.220;6.528;2023-02-28T15:57:17;11.00;;;9.27;;
52964;SDS011;42923;53.220;6.528;2023-02-28T15:59:51;15.88;;;11.45;;
52964;SDS011;42923;53.220;6.528;2023-02-28T16:02:34;12.32;;;11.02;;
52964;SDS011;42923;53.220;6.528;2023-02-28T16:07:37;25.15;;;21.67;;
52964;SDS011;42923;53.220;6.528;2023-02-28T16:10:08;29.50;;;26.60;;
52964;SDS011;42923;53.220;6.528;2023-02-28T16:12:36;14.93;;;11.68;;
52964;SDS011;42923;53.220;6.528;2023-02-28T16:15:26;11.65;;;6.10;;
52964;SDS011;42923;53.220;6.528;2023-02-28T16:17:54;6.82;;;6.13;;
52964;SDS011;42923;53.220;6.528;2023-02-28T16:20:23;9.30;;;6.97;;
52964;SDS011;42923;53.220;6.528;2023-02-28T16:22:49;8.18;;;6.65;;
52964;SDS011;42923;53.220;6.528;2023-02-28T16:25:19;8.30;;;6.60;;
52964;SDS011;42923;53.220;6.528;2023-02-28T16:27:52;9.70;;;6.38;;
52964;SDS011;42923;53.220;6.528;2023-02-28T16:30:20;9.73;;;6.53;;
52964;SDS011;42923;53.220;6.528;2023-02-28T16:32:48;9.15;;;6.72;;
52964;SDS011;42923;53.220;6.528;2023-02-28T16:35:15;9.80;;;6.75;;
52964;SDS011;42923;53.220;6.528;2023-02-28T16:37:43;8.85;;;6.57;;
52964;SDS011;42923;53.220;6.528;2023-02-28T16:40:15;8.25;;;6.35;;
52964;SDS011;42923;53.220;6.528;2023-02-28T16:42:43;16.95;;;7.50;;
52964;SDS011;42923;53.220;6.528;2023-02-28T16:45:14;10.35;;;8.73;;
52964;SDS011;42923;53.220;6.528;2023-02-28T16:47:46;10.35;;;9.23;;
52964;SDS011;42923;53.220;6.528;2023-02-28T16:50:21;12.45;;;8.02;;
52964;SDS011;42923;53.220;6.528;2023-02-28T16:52:52;9.90;;;7.32;;
52964;SDS011;42923;53.220;6.528;2023-02-28T16:55:19;12.43;;;6.43;;
52964;SDS011;42923;53.220;6.528;2023-02-28T16:57:56;12.52;;;10.10;;
52964;SDS011;42923;53.220;6.528;2023-02-28T17:00:23;9.13;;;6.80;;
52964;SDS011;42923;53.220;6.528;2023-02-28T17:02:50;11.05;;;8.40;;
52964;SDS011;42923;53.220;6.528;2023-02-28T17:05:16;9.52;;;7.68;;
52964;SDS011;42923;53.220;6.528;2023-02-28T17:07:43;11.55;;;6.95;;